createdAt,value
2022-09-28T00:01:27.549Z,100.00
2022-09-28T00:03:56.761Z,100.00
2022-09-28T00:06:25.365Z,100.00
2022-09-28T00:08:52.235Z,100.00
2022-09-28T00:11:20.520Z,100.00
2022-09-28T00:13:49.986Z,100.00
2022-09-28T00:16:17.486Z,100.00
2022-09-28T00:18:44.470Z,100.00
2022-09-28T00:21:14.545Z,100.00
2022-09-28T00:23:42.001Z,100.00
2022-09-28T00:26:08.577Z,100.00
2022-09-28T00:28:35.113Z,100.00
2022-09-28T00:31:01.798Z,100.00
2022-09-28T00:33:28.540Z,100.00
2022-09-28T00:35:56.581Z,100.00
2022-09-28T00:38:27.949Z,100.00
2022-09-28T00:40:54.860Z,100.00
2022-09-28T00:43:23.149Z,100.00
2022-09-28T00:45:55.433Z,100.00
2022-09-28T00:48:22.905Z,100.00
2022-09-28T00:50:50.433Z,100.00
2022-09-28T00:53:21.417Z,100.00
2022-09-28T00:55:51.920Z,100.00
2022-09-28T00:58:22.765Z,100.00
2022-09-28T01:00:49.841Z,100.00
2022-09-28T01:03:16.873Z,100.00
2022-09-28T01:05:44.820Z,100.00
2022-09-28T01:08:12.927Z,100.00
2022-09-28T01:10:40.570Z,100.00
2022-09-28T01:13:08.664Z,100.00
2022-09-28T01:15:42.522Z,100.00
2022-09-28T01:18:17.775Z,100.00
2022-09-28T01:20:54.143Z,100.00
2022-09-28T01:23:58.921Z,100.00
2022-09-28T01:26:41.279Z,100.00
2022-09-28T01:29:18.999Z,100.00
2022-09-28T01:31:52.676Z,100.00
2022-09-28T01:34:27.750Z,100.00
2022-09-28T01:36:58.164Z,100.00
2022-09-28T01:39:31.178Z,100.00
2022-09-28T01:42:04.095Z,100.00
2022-09-28T01:44:35.894Z,100.00
2022-09-28T01:47:03.281Z,100.00
2022-09-28T01:49:35.824Z,100.00
2022-09-28T01:52:09.014Z,100.00
2022-09-28T01:54:41.004Z,100.00
2022-09-28T01:57:15.060Z,100.00
2022-09-28T01:59:45.557Z,100.00
2022-09-28T02:02:17.025Z,100.00
2022-09-28T02:04:48.603Z,100.00
2022-09-28T02:07:22.731Z,100.00
2022-09-28T02:09:53.333Z,100.00
2022-09-28T02:12:25.926Z,100.00
2022-09-28T02:14:58.798Z,100.00
2022-09-28T02:17:25.462Z,100.00
2022-09-28T02:19:52.014Z,100.00
2022-09-28T02:22:26.409Z,100.00
2022-09-28T02:24:56.191Z,100.00
2022-09-28T02:27:31.748Z,100.00
2022-09-28T02:29:58.387Z,100.00
2022-09-28T02:32:28.304Z,100.00
2022-09-28T02:34:55.494Z,100.00
2022-09-28T02:37:22.151Z,100.00
2022-09-28T02:39:48.802Z,100.00
2022-09-28T02:42:21.006Z,100.00
2022-09-28T02:45:06.034Z,100.00
2022-09-28T02:47:48.092Z,100.00
2022-09-28T02:50:26.601Z,100.00
2022-09-28T02:53:12.087Z,100.00
2022-09-28T02:55:50.430Z,100.00
2022-09-28T02:58:31.342Z,100.00
2022-09-28T03:01:07.442Z,100.00
2022-09-28T03:03:46.179Z,100.00
2022-09-28T03:06:21.834Z,100.00
2022-09-28T03:08:53.485Z,100.00
2022-09-28T03:11:25.007Z,100.00
2022-09-28T03:13:52.597Z,100.00
2022-09-28T03:16:20.629Z,100.00
2022-09-28T03:18:47.892Z,100.00
2022-09-28T03:21:15.849Z,100.00
2022-09-28T03:23:42.780Z,100.00
2022-09-28T03:26:10.968Z,100.00
2022-09-28T03:28:37.597Z,100.00
2022-09-28T03:31:04.305Z,100.00
2022-09-28T03:33:32.281Z,100.00
2022-09-28T03:35:58.863Z,100.00
2022-09-28T03:38:25.659Z,100.00
2022-09-28T03:40:53.749Z,100.00
2022-09-28T03:43:20.596Z,100.00
2022-09-28T03:45:53.418Z,100.00
2022-09-28T03:48:24.501Z,100.00
2022-09-28T03:50:55.664Z,100.00
2022-09-28T03:53:22.744Z,100.00
2022-09-28T03:55:49.612Z,100.00
2022-09-28T03:58:16.578Z,100.00
2022-09-28T04:00:43.200Z,100.00
2022-09-28T04:03:09.797Z,100.00
2022-09-28T04:05:36.372Z,100.00
2022-09-28T04:08:04.695Z,100.00
2022-09-28T04:10:31.305Z,100.00
2022-09-28T04:12:58.479Z,100.00
2022-09-28T04:15:25.485Z,100.00
2022-09-28T04:17:52.307Z,100.00
2022-09-28T04:20:19.179Z,100.00
2022-09-28T04:22:45.774Z,100.00
2022-09-28T04:25:13.807Z,100.00
2022-09-28T04:27:40.353Z,100.00
2022-09-28T04:30:08.250Z,100.00
2022-09-28T04:32:34.784Z,100.00
2022-09-28T04:35:01.373Z,100.00
2022-09-28T04:37:27.898Z,100.00
2022-09-28T04:39:54.465Z,100.00
2022-09-28T04:42:22.396Z,100.00
2022-09-28T04:44:48.954Z,100.00
2022-09-28T04:47:15.547Z,100.00
2022-09-28T04:49:42.135Z,100.00
2022-09-28T04:52:08.725Z,100.00
2022-09-28T04:54:35.757Z,100.00
2022-09-28T04:57:02.705Z,100.00
2022-09-28T04:59:30.641Z,100.00
2022-09-28T05:01:57.252Z,100.00
2022-09-28T05:04:26.107Z,100.00
2022-09-28T05:06:53.009Z,100.00
2022-09-28T05:09:19.573Z,100.00
2022-09-28T05:11:46.129Z,100.00
2022-09-28T05:14:12.882Z,100.00
2022-09-28T05:16:40.830Z,100.00
2022-09-28T05:19:07.504Z,100.00
2022-09-28T05:21:34.079Z,100.00
2022-09-28T05:24:01.272Z,100.00
2022-09-28T05:26:27.818Z,100.00
2022-09-28T05:28:54.455Z,100.00
2022-09-28T05:31:21.068Z,100.00
2022-09-28T05:33:50.835Z,100.00
2022-09-28T05:36:17.379Z,100.00
2022-09-28T05:38:43.988Z,100.00
2022-09-28T05:41:17.689Z,100.00
2022-09-28T05:43:44.323Z,100.00
2022-09-28T05:46:11.250Z,100.00
2022-09-28T05:48:37.936Z,100.00
2022-09-28T05:51:06.289Z,100.00
2022-09-28T05:53:32.884Z,100.00
2022-09-28T05:55:59.511Z,100.00
2022-09-28T05:58:26.061Z,100.00
2022-09-28T06:00:54.713Z,100.00
2022-09-28T06:03:21.529Z,100.00
2022-09-28T06:05:48.087Z,100.00
2022-09-28T06:08:16.108Z,100.00
2022-09-28T06:10:42.695Z,100.00
2022-09-28T06:13:10.683Z,100.00
2022-09-28T06:15:37.811Z,100.00
2022-09-28T06:18:06.619Z,100.00
2022-09-28T06:20:35.512Z,100.00
2022-09-28T06:23:02.077Z,100.00
2022-09-28T06:25:30.107Z,100.00
2022-09-28T06:27:58.585Z,100.00
2022-09-28T06:30:26.822Z,100.00
2022-09-28T06:32:54.713Z,100.00
2022-09-28T06:35:21.875Z,100.00
2022-09-28T06:37:48.541Z,100.00
2022-09-28T06:40:15.651Z,100.00
2022-09-28T06:42:43.733Z,100.00
2022-09-28T06:45:10.583Z,100.00
2022-09-28T06:47:37.582Z,100.00
2022-09-28T06:50:04.913Z,100.00
2022-09-28T06:52:31.720Z,100.00
2022-09-28T06:54:58.368Z,100.00
2022-09-28T06:57:24.911Z,100.00
2022-09-28T06:59:52.928Z,100.00
2022-09-28T07:02:19.574Z,100.00
2022-09-28T07:04:46.174Z,100.00
2022-09-28T07:07:12.779Z,100.00
2022-09-28T07:09:43.685Z,100.00
2022-09-28T07:12:13.146Z,100.00
2022-09-28T07:14:47.728Z,100.00
2022-09-28T07:17:16.515Z,100.00
2022-09-28T07:19:43.149Z,100.00
2022-09-28T07:22:09.741Z,100.00
2022-09-28T07:24:36.283Z,100.00
2022-09-28T07:27:02.955Z,100.00
2022-09-28T07:29:29.614Z,100.00
2022-09-28T07:31:56.153Z,100.00
2022-09-28T07:34:24.933Z,100.00
2022-09-28T07:36:51.478Z,100.00
2022-09-28T07:39:18.089Z,100.00
2022-09-28T07:41:44.761Z,100.00
2022-09-28T07:44:11.409Z,100.00
2022-09-28T07:46:38.158Z,100.00
2022-09-28T07:49:08.296Z,100.00
2022-09-28T07:51:39.513Z,100.00
2022-09-28T07:54:06.257Z,100.00
2022-09-28T07:56:32.797Z,100.00
2022-09-28T07:58:59.369Z,100.00
2022-09-28T08:01:26.121Z,100.00
2022-09-28T08:03:52.660Z,100.00
2022-09-28T08:06:19.214Z,100.00
2022-09-28T08:08:47.191Z,100.00
2022-09-28T08:11:15.959Z,100.00
2022-09-28T08:13:42.663Z,100.00
2022-09-28T08:16:09.251Z,100.00
2022-09-28T08:18:36.154Z,100.00
2022-09-28T08:21:03.506Z,100.00
2022-09-28T08:23:30.290Z,100.00
2022-09-28T08:25:58.216Z,100.00
2022-09-28T08:28:25.229Z,100.00
2022-09-28T08:30:52.420Z,100.00
2022-09-28T08:33:20.110Z,100.00
2022-09-28T08:35:47.226Z,100.00
2022-09-28T08:38:14.220Z,100.00
2022-09-28T08:40:49.962Z,100.00
2022-09-28T08:43:39.649Z,100.00
2022-09-28T08:46:07.148Z,100.00
2022-09-28T08:48:37.427Z,100.00
2022-09-28T08:51:10.443Z,100.00
2022-09-28T08:53:42.190Z,100.00
2022-09-28T08:56:21.645Z,100.00
2022-09-28T08:58:55.953Z,100.00
2022-09-28T09:01:26.435Z,100.00
2022-09-28T09:03:55.222Z,100.00
2022-09-28T09:06:34.292Z,100.00
2022-09-28T09:09:08.697Z,100.00
2022-09-28T09:11:51.259Z,100.00
2022-09-28T09:14:44.306Z,100.00
2022-09-28T09:17:25.991Z,100.00
2022-09-28T09:19:54.987Z,100.00
2022-09-28T09:22:38.390Z,100.00
2022-09-28T09:25:18.280Z,100.00
2022-09-28T09:28:13.350Z,100.00
2022-09-28T09:30:52.250Z,100.00
2022-09-28T09:33:50.352Z,100.00
2022-09-28T09:36:31.842Z,100.00
2022-09-28T09:39:11.692Z,100.00
2022-09-28T09:41:53.418Z,100.00
2022-09-28T09:44:41.129Z,100.00
2022-09-28T09:47:13.181Z,100.00
2022-09-28T09:49:44.310Z,100.00
2022-09-28T09:52:17.578Z,100.00
2022-09-28T09:54:49.940Z,100.00
2022-09-28T09:57:20.984Z,100.00
2022-09-28T09:59:49.175Z,100.00
2022-09-28T10:02:23.376Z,100.00
2022-09-28T10:04:54.719Z,100.00
2022-09-28T10:07:24.220Z,100.00
2022-09-28T10:09:56.762Z,100.00
2022-09-28T10:12:24.404Z,100.00
2022-09-28T10:14:51.104Z,100.00
2022-09-28T10:17:19.706Z,100.00
2022-09-28T10:19:46.547Z,100.00
2022-09-28T10:22:17.540Z,100.00
2022-09-28T10:24:49.338Z,100.00
2022-09-28T10:27:19.006Z,100.00
2022-09-28T10:29:50.670Z,100.00
2022-09-28T10:32:21.388Z,100.00
2022-09-28T10:34:50.845Z,100.00
2022-09-28T10:37:18.461Z,100.00
2022-09-28T10:39:49.297Z,100.00
2022-09-28T10:42:20.900Z,100.00
2022-09-28T10:44:55.423Z,100.00
2022-09-28T10:47:26.176Z,100.00
2022-09-28T10:49:55.325Z,100.00
2022-09-28T10:52:36.830Z,100.00
2022-09-28T10:55:22.365Z,100.00
2022-09-28T10:57:49.360Z,100.00
2022-09-28T11:00:31.900Z,100.00
2022-09-28T11:03:00.980Z,100.00
2022-09-28T11:05:28.127Z,100.00
2022-09-28T11:07:56.746Z,100.00
2022-09-28T11:10:25.770Z,100.00
2022-09-28T11:12:53.703Z,100.00
2022-09-28T11:15:22.335Z,100.00
2022-09-28T11:17:49.040Z,100.00
2022-09-28T11:20:34.884Z,100.00
2022-09-28T11:23:17.926Z,98.11
2022-09-28T11:25:57.328Z,99.92
2022-09-28T11:28:30.475Z,100.00
2022-09-28T11:30:57.708Z,98.44
2022-09-28T11:33:30.460Z,100.00
2022-09-28T11:36:09.904Z,98.82
2022-09-28T11:38:40.306Z,100.00
2022-09-28T11:41:36.033Z,100.00
2022-09-28T11:44:27.032Z,100.00
2022-09-28T11:47:09.983Z,99.20
2022-09-28T11:49:44.030Z,100.00
2022-09-28T11:52:18.927Z,100.00
2022-09-28T11:54:52.071Z,100.00
2022-09-28T11:57:25.210Z,100.00
2022-09-28T11:59:58.078Z,97.89
2022-09-28T12:02:29.816Z,96.05
2022-09-28T12:05:02.082Z,96.57
2022-09-28T12:07:35.620Z,96.46
2022-09-28T12:10:12.076Z,95.01
2022-09-28T12:12:43.725Z,94.91
2022-09-28T12:15:17.973Z,95.58
2022-09-28T12:17:49.670Z,99.62
2022-09-28T12:20:21.214Z,96.68
2022-09-28T12:23:02.559Z,94.58
2022-09-28T12:25:37.065Z,95.91
2022-09-28T12:28:11.413Z,93.48
2022-09-28T12:30:43.397Z,99.71
2022-09-28T12:33:12.782Z,100.00
2022-09-28T12:35:55.938Z,98.84
2022-09-28T12:38:36.522Z,100.00
2022-09-28T12:41:15.789Z,100.00
2022-09-28T12:44:11.321Z,100.00
2022-09-28T12:47:05.753Z,100.00
2022-09-28T12:52:52.003Z,100.00
2022-09-28T12:55:40.523Z,100.00
2022-09-28T12:58:24.717Z,100.00
2022-09-28T13:01:04.150Z,100.00
2022-09-28T13:04:04.530Z,100.00
2022-09-28T13:06:42.890Z,100.00
2022-09-28T13:09:28.263Z,100.00
2022-09-28T13:12:05.466Z,100.00
2022-09-28T13:15:02.842Z,100.00
2022-09-28T13:17:40.444Z,100.00
2022-09-28T13:20:22.088Z,100.00
2022-09-28T13:22:56.467Z,100.00
2022-09-28T13:25:27.387Z,100.00
2022-09-28T13:27:58.325Z,100.00
2022-09-28T13:30:25.314Z,100.00
2022-09-28T13:32:55.620Z,100.00
2022-09-28T13:35:22.644Z,100.00
2022-09-28T13:38:28.088Z,100.00
2022-09-28T13:41:18.063Z,100.00
2022-09-28T13:44:14.531Z,100.00
2022-09-28T13:46:48.944Z,100.00
2022-09-28T13:49:22.510Z,100.00
2022-09-28T13:52:02.485Z,100.00
2022-09-28T13:54:46.210Z,100.00
2022-09-28T13:57:19.450Z,100.00
2022-09-28T13:59:58.480Z,100.00
2022-09-28T14:02:34.685Z,100.00
2022-09-28T14:05:03.824Z,100.00
2022-09-28T14:08:09.867Z,100.00
2022-09-28T14:10:47.141Z,100.00
2022-09-28T14:14:03.870Z,100.00
2022-09-28T14:16:33.519Z,100.00
2022-09-28T14:19:07.895Z,100.00
2022-09-28T14:21:55.833Z,100.00
2022-09-28T14:24:36.402Z,100.00
2022-09-28T14:27:31.426Z,100.00
2022-09-28T14:30:15.871Z,100.00
2022-09-28T14:32:52.726Z,100.00
2022-09-28T14:35:27.361Z,100.00
2022-09-28T14:37:59.294Z,100.00
2022-09-28T14:40:31.883Z,100.00
2022-09-28T14:43:22.367Z,100.00
2022-09-28T14:45:49.450Z,100.00
2022-09-28T14:48:21.539Z,100.00
2022-09-28T14:50:49.077Z,100.00
2022-09-28T14:53:20.482Z,100.00
2022-09-28T14:55:50.088Z,100.00
2022-09-28T14:58:22.564Z,100.00
2022-09-28T15:01:01.370Z,100.00
2022-09-28T15:03:33.143Z,100.00
2022-09-28T15:05:59.752Z,100.00
2022-09-28T15:08:36.834Z,100.00
2022-09-28T15:11:03.662Z,100.00
2022-09-28T15:13:30.484Z,100.00
2022-09-28T15:16:03.606Z,100.00
2022-09-28T15:19:12.004Z,100.00
2022-09-28T15:21:41.105Z,100.00
2022-09-28T15:24:29.943Z,100.00
2022-09-28T15:26:56.994Z,100.00
2022-09-28T15:29:24.626Z,100.00
2022-09-28T15:31:54.509Z,100.00
2022-09-28T15:34:31.349Z,100.00
2022-09-28T15:36:58.194Z,100.00
2022-09-28T15:39:31.327Z,100.00
2022-09-28T15:42:00.292Z,100.00
2022-09-28T15:44:32.314Z,100.00
2022-09-28T15:47:12.008Z,100.00
2022-09-28T15:49:45.732Z,100.00
2022-09-28T15:52:26.562Z,100.00
2022-09-28T15:54:54.362Z,100.00
2022-09-28T15:57:34.018Z,100.00
2022-09-28T16:00:01.230Z,100.00
2022-09-28T16:02:28.052Z,100.00
2022-09-28T16:04:58.451Z,100.00
2022-09-28T16:07:36.003Z,100.00
2022-09-28T16:10:25.884Z,100.00
2022-09-28T16:12:55.825Z,100.00
2022-09-28T16:15:27.067Z,100.00
2022-09-28T16:17:56.369Z,100.00
2022-09-28T16:20:28.631Z,100.00
2022-09-28T16:22:57.369Z,100.00
2022-09-28T16:25:26.742Z,100.00
2022-09-28T16:27:54.504Z,100.00
2022-09-28T16:30:22.994Z,100.00
2022-09-28T16:32:53.005Z,100.00
2022-09-28T16:35:27.466Z,100.00
2022-09-28T16:38:10.405Z,100.00
2022-09-28T16:40:41.223Z,100.00
2022-09-28T16:43:13.355Z,100.00
2022-09-28T16:45:40.088Z,100.00
2022-09-28T16:48:06.951Z,100.00
2022-09-28T16:50:35.307Z,100.00
2022-09-28T16:53:13.007Z,100.00
2022-09-28T16:55:41.150Z,100.00
2022-09-28T16:58:08.494Z,100.00
2022-09-28T17:00:35.272Z,100.00
2022-09-28T17:03:02.161Z,100.00
2022-09-28T17:05:28.966Z,100.00
2022-09-28T17:08:00.303Z,100.00
2022-09-28T17:10:49.738Z,100.00
2022-09-28T17:13:21.615Z,100.00
2022-09-28T17:15:48.531Z,100.00
2022-09-28T17:18:16.162Z,100.00
2022-09-28T17:20:45.177Z,100.00
2022-09-28T17:23:13.390Z,100.00
2022-09-28T17:25:40.984Z,100.00
2022-09-28T17:28:18.854Z,100.00
2022-09-28T17:30:48.721Z,100.00
2022-09-28T17:33:15.603Z,100.00
2022-09-28T17:35:44.501Z,100.00
2022-09-28T17:38:14.123Z,100.00
2022-09-28T17:40:42.147Z,100.00
2022-09-28T17:43:09.766Z,100.00
2022-09-28T17:45:38.382Z,100.00
2022-09-28T17:48:05.418Z,100.00
2022-09-28T17:50:34.352Z,100.00
2022-09-28T17:53:01.731Z,100.00
2022-09-28T17:55:30.862Z,100.00
2022-09-28T17:58:02.278Z,100.00
2022-09-28T18:00:29.391Z,100.00
2022-09-28T18:02:57.537Z,100.00
2022-09-28T18:05:25.919Z,100.00
2022-09-28T18:07:53.059Z,100.00
2022-09-28T18:10:23.695Z,100.00
2022-09-28T18:12:51.893Z,100.00
2022-09-28T18:15:19.487Z,100.00
2022-09-28T18:17:46.309Z,100.00
2022-09-28T18:20:13.717Z,100.00
2022-09-28T18:22:40.786Z,100.00
2022-09-28T18:25:08.300Z,100.00
2022-09-28T18:27:35.057Z,100.00
2022-09-28T18:30:04.247Z,100.00
2022-09-28T18:32:31.008Z,100.00
2022-09-28T18:34:57.709Z,100.00
2022-09-28T18:37:24.406Z,100.00
2022-09-28T18:39:51.070Z,100.00
2022-09-28T18:42:17.990Z,100.00
2022-09-28T18:44:44.605Z,100.00
2022-09-28T18:47:13.185Z,100.00
2022-09-28T18:49:42.544Z,100.00
2022-09-28T18:52:12.711Z,100.00
2022-09-28T18:54:39.385Z,100.00
2022-09-28T18:57:06.067Z,100.00
2022-09-28T18:59:32.813Z,100.00
2022-09-28T19:01:59.571Z,100.00
2022-09-28T19:04:27.703Z,100.00
2022-09-28T19:06:54.795Z,100.00
2022-09-28T19:09:23.020Z,100.00
2022-09-28T19:11:49.764Z,100.00
2022-09-28T19:14:16.781Z,100.00
2022-09-28T19:16:44.351Z,100.00
2022-09-28T19:19:12.372Z,100.00
2022-09-28T19:21:41.107Z,100.00
2022-09-28T19:24:07.918Z,100.00
2022-09-28T19:26:34.556Z,100.00
2022-09-28T19:29:01.367Z,100.00
2022-09-28T19:31:29.271Z,100.00
2022-09-28T19:33:57.174Z,100.00
2022-09-28T19:36:25.981Z,100.00
2022-09-28T19:38:55.398Z,100.00
2022-09-28T19:41:22.677Z,100.00
2022-09-28T19:43:49.314Z,100.00
2022-09-28T19:46:16.042Z,100.00
2022-09-28T19:48:42.794Z,100.00
2022-09-28T19:51:09.524Z,100.00
2022-09-28T19:53:36.611Z,100.00
2022-09-28T19:56:05.396Z,100.00
2022-09-28T19:58:34.165Z,100.00
2022-09-28T20:01:04.450Z,100.00
2022-09-28T20:03:31.107Z,100.00
2022-09-28T20:05:58.819Z,100.00
2022-09-28T20:08:25.470Z,100.00
2022-09-28T20:10:53.315Z,100.00
2022-09-28T20:13:22.206Z,100.00
2022-09-28T20:15:48.917Z,100.00
2022-09-28T20:18:15.994Z,100.00
2022-09-28T20:20:42.679Z,100.00
2022-09-28T20:23:09.667Z,100.00
2022-09-28T20:25:36.745Z,100.00
2022-09-28T20:28:03.390Z,100.00
2022-09-28T20:30:31.568Z,100.00
2022-09-28T20:32:58.328Z,100.00
2022-09-28T20:35:32.691Z,100.00
2022-09-28T20:38:02.038Z,100.00
2022-09-28T20:40:28.817Z,100.00
2022-09-28T20:42:55.467Z,100.00
2022-09-28T20:45:22.119Z,100.00
2022-09-28T20:47:50.301Z,100.00
2022-09-28T20:50:17.034Z,100.00
2022-09-28T20:52:43.768Z,100.00
2022-09-28T20:55:10.405Z,100.00
2022-09-28T20:57:37.504Z,100.00
2022-09-28T21:00:05.250Z,100.00
2022-09-28T21:02:32.176Z,100.00
2022-09-28T21:05:00.430Z,100.00
2022-09-28T21:07:27.123Z,100.00
2022-09-28T21:09:54.031Z,100.00
2022-09-28T21:12:20.716Z,100.00
2022-09-28T21:14:47.411Z,100.00
2022-09-28T21:17:14.351Z,100.00
2022-09-28T21:19:41.004Z,100.00
2022-09-28T21:22:09.403Z,100.00
2022-09-28T21:24:36.026Z,100.00
2022-09-28T21:27:02.783Z,100.00
2022-09-28T21:29:29.701Z,100.00
2022-09-28T21:31:56.496Z,100.00
2022-09-28T21:34:23.132Z,100.00
2022-09-28T21:36:51.350Z,100.00
2022-09-28T21:39:19.975Z,100.00
2022-09-28T21:41:46.573Z,100.00
2022-09-28T21:44:13.316Z,100.00
2022-09-28T21:46:40.112Z,100.00
2022-09-28T21:49:08.487Z,100.00
2022-09-28T21:51:35.551Z,100.00
2022-09-28T21:54:07.973Z,100.00
2022-09-28T21:56:36.011Z,100.00
2022-09-28T21:59:02.674Z,100.00
2022-09-28T22:01:29.361Z,100.00
2022-09-28T22:03:57.017Z,100.00
2022-09-28T22:06:25.276Z,100.00
2022-09-28T22:08:51.903Z,100.00
2022-09-28T22:11:20.666Z,100.00
2022-09-28T22:13:50.810Z,100.00
2022-09-28T22:16:19.484Z,100.00
2022-09-28T22:18:46.652Z,100.00
2022-09-28T22:21:15.241Z,100.00
2022-09-28T22:23:42.297Z,100.00
2022-09-28T22:26:10.965Z,100.00
2022-09-28T22:28:38.408Z,100.00
2022-09-28T22:31:06.688Z,100.00
2022-09-28T22:33:33.398Z,100.00
2022-09-28T22:36:00.111Z,100.00
2022-09-28T22:38:26.744Z,100.00
2022-09-28T22:40:55.872Z,100.00
2022-09-28T22:43:24.385Z,100.00
2022-09-28T22:45:51.328Z,100.00
2022-09-28T22:48:19.376Z,100.00
2022-09-28T22:50:49.355Z,100.00
2022-09-28T22:53:15.998Z,100.00
2022-09-28T22:55:42.817Z,100.00
2022-09-28T22:58:09.500Z,100.00
2022-09-28T23:00:36.213Z,100.00
2022-09-28T23:03:03.068Z,100.00
2022-09-28T23:05:32.346Z,100.00
2022-09-28T23:07:59.077Z,100.00
2022-09-28T23:10:25.890Z,100.00
2022-09-28T23:12:53.410Z,100.00
2022-09-28T23:15:20.076Z,100.00
2022-09-28T23:17:50.781Z,100.00
2022-09-28T23:20:17.597Z,100.00
2022-09-28T23:22:47.336Z,100.00
2022-09-28T23:25:14.575Z,100.00
2022-09-28T23:27:44.888Z,100.00
2022-09-28T23:30:12.049Z,100.00
2022-09-28T23:32:38.732Z,100.00
2022-09-28T23:35:06.436Z,100.00
2022-09-28T23:37:33.079Z,100.00
2022-09-28T23:40:01.480Z,100.00
2022-09-28T23:42:28.204Z,100.00
2022-09-28T23:44:54.839Z,100.00
2022-09-28T23:47:21.490Z,100.00
2022-09-28T23:49:48.119Z,100.00
2022-09-28T23:52:14.761Z,100.00
2022-09-28T23:54:41.461Z,100.00
2022-09-28T23:57:09.482Z,100.00
2022-09-28T23:59:36.106Z,100.00
